TimePDT,TemperatureF,Dew PointF,Humidity,Sea Level PressureIn,VisibilityMPH,Wind Direction,Wind SpeedMPH,Gust SpeedMPH,PrecipitationIn,Events,Conditions,WindDirDegrees,DateUTC
12:55 AM,71.1,46.0,41,29.87,10.0,Variable,3.5,-,N/A,,Partly Cloudy,0,2013-09-05 07:55:00
1:55 AM,68.0,46.0,45,29.87,10.0,North,5.8,-,N/A,,Clear,350,2013-09-05 08:55:00
2:55 AM,66.9,45.0,45,29.88,10.0,Variable,5.8,-,N/A,,Clear,0,2013-09-05 09:55:00
3:55 AM,64.0,46.9,54,29.89,10.0,Calm,Calm,-,N/A,,Clear,0,2013-09-05 10:55:00
4:55 AM,61.0,46.0,58,29.90,10.0,SE,3.5,-,N/A,,Clear,140,2013-09-05 11:55:00
5:55 AM,62.1,46.0,56,29.88,10.0,Calm,Calm,-,N/A,,Partly Cloudy,0,2013-09-05 12:55:00
6:55 AM,60.1,46.0,60,29.90,10.0,Calm,Calm,-,N/A,,Scattered Clouds,0,2013-09-05 13:55:00
7:55 AM,63.0,44.1,50,29.91,10.0,East,3.5,-,N/A,,Scattered Clouds,90,2013-09-05 14:55:00
8:55 AM,75.9,42.1,30,29.87,10.0,South,13.8,19.6,N/A,,Scattered Clouds,180,2013-09-05 15:55:00
9:55 AM,79.0,42.1,27,29.86,7.0,South,20.7,-,N/A,,Scattered Clouds,180,2013-09-05 16:55:00
10:55 AM,84.0,32.0,15,29.86,10.0,SSW,27.6,33.4,N/A,,Partly Cloudy,200,2013-09-05 17:55:00
11:55 AM,84.9,35.1,17,29.85,10.0,SSW,23.0,33.4,N/A,,Partly Cloudy,210,2013-09-05 18:55:00
12:55 PM,84.9,37.9,19,29.86,10.0,SW,21.9,33.4,N/A,,Partly Cloudy,220,2013-09-05 19:55:00
1:55 PM,84.9,37.9,19,29.86,10.0,South,33.4,41.4,N/A,,Partly Cloudy,190,2013-09-05 20:55:00
2:55 PM,84.9,39.9,20,29.84,10.0,SSW,20.7,31.1,N/A,,Partly Cloudy,210,2013-09-05 21:55:00
3:55 PM,84.9,37.9,19,29.83,10.0,South,20.7,33.4,N/A,,Partly Cloudy,190,2013-09-05 22:55:00
4:55 PM,84.0,37.0,19,29.84,10.0,SSW,24.2,28.8,N/A,,Partly Cloudy,200,2013-09-05 23:55:00
5:55 PM,82.0,37.0,20,29.85,10.0,SSW,15.0,24.2,N/A,,Partly Cloudy,200,2013-09-06 00:55:00
6:55 PM,79.0,33.1,19,29.87,10.0,SSW,15.0,-,N/A,,Clear,200,2013-09-06 01:55:00
7:55 PM,75.0,33.1,22,29.90,10.0,Variable,3.5,-,N/A,,Clear,0,2013-09-06 02:55:00
8:55 PM,73.0,36.0,26,29.90,10.0,SSW,4.6,-,N/A,,Clear,210,2013-09-06 03:55:00
9:55 PM,70.0,36.0,29,29.92,10.0,West,9.2,-,N/A,,Clear,270,2013-09-06 04:55:00
10:55 PM,68.0,35.1,30,29.93,10.0,NW,12.7,-,N/A,,Clear,310,2013-09-06 05:55:00
11:55 PM,66.9,35.1,31,29.93,10.0,Variable,3.5,-,N/A,,Clear,0,2013-09-06 06:55:00